createdAt,value
2023-04-24T00:01:56.750Z,14.30
2023-04-24T00:14:56.756Z,13.65
2023-04-24T00:27:56.749Z,13.20
2023-04-24T00:40:56.764Z,12.60
2023-04-24T00:53:56.769Z,12.90
2023-04-24T01:06:56.782Z,12.00
2023-04-24T01:19:56.782Z,11.60
2023-04-24T01:32:56.809Z,11.90
2023-04-24T01:45:56.796Z,11.30
2023-04-24T01:58:56.797Z,11.30
2023-04-24T02:11:56.797Z,10.20
2023-04-24T02:24:56.799Z,10.40
2023-04-24T02:37:56.815Z,10.00
2023-04-24T02:50:56.811Z,9.90
2023-04-24T03:03:56.982Z,9.50
2023-04-24T03:16:56.824Z,9.80
2023-04-24T03:29:56.902Z,9.50
2023-04-24T03:42:56.836Z,8.95
2023-04-24T03:55:56.831Z,9.00
2023-04-24T04:08:56.837Z,8.75
2023-04-24T04:21:56.847Z,8.30
2023-04-24T04:35:56.848Z,7.90
2023-04-24T04:49:56.856Z,8.10
2023-04-24T05:03:57.036Z,8.30
2023-04-24T05:17:57.971Z,10.10
2023-04-24T05:31:56.903Z,9.40
2023-04-24T05:46:56.946Z,9.00
2023-04-24T06:00:56.899Z,19.00
2023-04-24T06:14:56.907Z,21.90
2023-04-24T06:28:56.905Z,23.80
2023-04-24T06:42:56.914Z,22.65
2023-04-24T06:56:56.927Z,21.20
2023-04-24T07:11:56.914Z,23.05
2023-04-24T07:25:56.920Z,19.45
2023-04-24T07:38:56.943Z,19.90
2023-04-24T07:52:56.921Z,15.00
2023-04-24T08:06:56.945Z,17.90
2023-04-24T08:20:56.933Z,14.70
2023-04-24T08:34:56.938Z,12.40
2023-04-24T08:48:56.950Z,14.60
2023-04-24T09:02:57.147Z,12.60
2023-04-24T09:16:56.985Z,15.20
2023-04-24T09:30:56.949Z,12.10
2023-04-24T09:45:01.720Z,11.10
2023-04-24T09:58:56.953Z,10.40
2023-04-24T10:10:56.977Z,8.40
2023-04-24T10:24:56.970Z,7.00
2023-04-24T10:38:56.966Z,21.80
2023-04-24T10:51:56.997Z,6.20
2023-04-24T11:05:57.003Z,6.20
2023-04-24T11:19:57.024Z,6.00
2023-04-24T11:33:57.035Z,5.20
2023-04-24T11:45:57.034Z,5.10
2023-04-24T11:56:57.044Z,6.40
2023-04-24T12:07:57.025Z,5.60
2023-04-24T12:21:57.021Z,4.10
2023-04-24T12:34:57.048Z,6.00
2023-04-24T12:46:57.076Z,5.80
2023-04-24T13:00:57.037Z,2.80
2023-04-24T13:14:57.041Z,2.80
2023-04-24T13:28:57.043Z,4.00
2023-04-24T13:39:57.066Z,4.10
2023-04-24T13:50:57.045Z,3.30
2023-04-24T14:04:57.123Z,3.30
2023-04-24T14:18:57.078Z,3.10
2023-04-24T14:29:57.075Z,2.80
2023-04-24T14:43:57.086Z,4.00
2023-04-24T14:54:57.067Z,3.30
2023-04-24T15:08:57.090Z,2.50
2023-04-24T15:19:57.091Z,2.10
2023-04-24T15:30:57.097Z,3.40
2023-04-24T15:41:57.090Z,3.80
2023-04-24T15:52:57.211Z,2.30
2023-04-24T16:03:57.292Z,3.50
2023-04-24T16:14:57.109Z,5.40
2023-04-24T16:28:57.116Z,3.05
2023-04-24T16:39:57.093Z,3.40
2023-04-24T16:50:57.123Z,2.50
2023-04-24T17:01:57.117Z,2.30
2023-04-24T17:12:57.115Z,2.80
2023-04-24T17:23:57.106Z,2.80
2023-04-24T17:35:57.110Z,4.30
2023-04-24T17:46:57.139Z,5.20
2023-04-24T17:57:57.140Z,3.80
2023-04-24T18:08:57.125Z,4.35
2023-04-24T18:19:57.148Z,3.80
2023-04-24T18:30:57.232Z,4.30
2023-04-24T18:41:57.137Z,4.00
2023-04-24T18:51:57.181Z,3.40
2023-04-24T19:01:57.199Z,4.00
2023-04-24T19:11:57.164Z,6.60
2023-04-24T19:21:57.165Z,6.70
2023-04-24T19:31:57.187Z,5.80
2023-04-24T19:41:57.182Z,5.50
2023-04-24T19:51:57.171Z,6.70
2023-04-24T20:01:57.315Z,8.75
2023-04-24T20:11:57.169Z,5.80
2023-04-24T20:21:57.184Z,4.50
2023-04-24T20:31:57.216Z,4.60
2023-04-24T20:41:57.203Z,4.80
2023-04-24T20:51:57.194Z,5.60
2023-04-24T21:01:57.222Z,3.20
2023-04-24T21:11:57.191Z,4.10
2023-04-24T21:21:57.206Z,3.50
2023-04-24T21:31:57.261Z,6.90
2023-04-24T21:41:57.199Z,4.10
2023-04-24T21:54:57.220Z,3.75
2023-04-24T22:07:57.239Z,2.50
2023-04-24T22:17:57.396Z,3.10
2023-04-24T22:27:57.220Z,2.70
2023-04-24T22:37:57.216Z,2.20
2023-04-24T22:47:57.271Z,2.30
2023-04-24T23:00:57.282Z,2.80
2023-04-24T23:10:57.247Z,3.80
2023-04-24T23:23:57.240Z,2.50
2023-04-24T23:36:57.272Z,3.45
2023-04-24T23:49:57.291Z,2.50
